Fort Thomas, Arizona
Current Conditions -  °F | °C
As of 10:51 PM on Wednesday 26 Nov 2014 (Local Time) from KSAD Reporting Station
Clear Clear  
Wind Chill: 42°   Ceiling: Unl
Heat Index: 42°   Visibility: 10mi
Dew Point: 13°   Wind: 0mph
Humidity: 31%   Direction: NA
Pressure: 30.29"   Gusts: NA
Location:  33.04°N, 109.96°W
Report Text: KSAD 270551Z AUTO 00000KT 10SM CLR 06/M11 A3029 RMK AO2 SLP246 T00561106 10178 20056 53009
Loading
Personal Weather Stations






























Interactive Weather Map New forecast layout! Learn more

10-Day Weather Forecast

Advertisements
Track Severe Weather on mobile